Details for BA - British Airways at EGLL




Go Back


Latest METAR
Local Time

EGLL 240750Z AUTO 01005KT 330V050 5000 -RADZ SCT008 BKN031 BKN049 11/10 Q1021 TEMPO 4000 SHRA BKN008

24/05/2018, 08:58:08

Description
Results
BA - British Airways Logo
Number of Pilots based at EGLL
1 Pilots Based here
Number of BA - British Airways Flights Departed from EGLL
111 Flights Departed
Number of BA - British Airways Flights Arrived at EGLL
110 Flights Arrived
Number of BA - British Airways Schedules Departing from EGLL
518 Schedules
Number of BA - British Airways Schedules Arriving at EGLL
565 Schedules
Number of BA - British Airways Schedules Departing from EGLL availible today
305 Schedules Today
Number of BA - British Airways Schedules Arriving at EGLL availible today
303 Schedules Today
Average Landing Rate at EGLL
-191 fpm
BA - British Airways Average Landing Rate at EGLL
-186 fpm
Total Fuel Purchased at EGLL by BA - British Airways
1,254,650.36 kgs / 2,766,002.18 lbs

Pilots Based at EGLL


Pilot ID
Pilot Name
Pilot Rank
No. of Flights
No. of Flying Hours
Chris Nicholson
40
114.17
Content